sensor_id;sensor_type;location;lat;lon;timestamp;pressure;altitude;pressure_sealevel;temperature;humidity
36386;BME280;24125;47.482;8.770;2022-12-10T00:01:32;94871.38;;;6.41;73.41
36386;BME280;24125;47.482;8.770;2022-12-10T00:04:06;94875.91;;;6.41;73.83
36386;BME280;24125;47.482;8.770;2022-12-10T00:06:41;94875.91;;;6.41;73.53
36386;BME280;24125;47.482;8.770;2022-12-10T00:09:17;94878.56;;;6.41;73.95
36386;BME280;24125;47.482;8.770;2022-12-10T00:11:50;94877.78;;;6.40;73.75
36386;BME280;24125;47.482;8.770;2022-12-10T00:14:23;94878.25;;;6.42;73.74
36386;BME280;24125;47.482;8.770;2022-12-10T00:16:57;94877.91;;;6.44;73.60
36386;BME280;24125;47.482;8.770;2022-12-10T00:19:30;94870.75;;;6.44;73.70
36386;BME280;24125;47.482;8.770;2022-12-10T00:22:04;94875.25;;;6.44;73.37
36386;BME280;24125;47.482;8.770;2022-12-10T00:24:37;94876.38;;;6.43;73.00
36386;BME280;24125;47.482;8.770;2022-12-10T00:27:10;94864.22;;;6.42;72.32
36386;BME280;24125;47.482;8.770;2022-12-10T00:29:43;94856.94;;;6.39;72.72
36386;BME280;24125;47.482;8.770;2022-12-10T00:32:16;94855.38;;;6.38;72.48
36386;BME280;24125;47.482;8.770;2022-12-10T00:34:49;94865.88;;;6.34;72.62
36386;BME280;24125;47.482;8.770;2022-12-10T00:37:24;94866.97;;;6.33;73.27
36386;BME280;24125;47.482;8.770;2022-12-10T00:39:57;94861.88;;;6.28;73.06
36386;BME280;24125;47.482;8.770;2022-12-10T00:42:30;94861.44;;;6.26;72.94
36386;BME280;24125;47.482;8.770;2022-12-10T00:45:05;94864.09;;;6.26;73.04
36386;BME280;24125;47.482;8.770;2022-12-10T00:47:38;94865.50;;;6.24;72.97
36386;BME280;24125;47.482;8.770;2022-12-10T00:50:13;94866.59;;;6.23;73.39
36386;BME280;24125;47.482;8.770;2022-12-10T00:52:48;94854.13;;;6.23;73.69
36386;BME280;24125;47.482;8.770;2022-12-10T00:55:20;94847.72;;;6.24;73.16
36386;BME280;24125;47.482;8.770;2022-12-10T00:57:54;94848.97;;;6.27;73.04
36386;BME280;24125;47.482;8.770;2022-12-10T01:00:27;94856.59;;;6.28;73.04
36386;BME280;24125;47.482;8.770;2022-12-10T01:03:01;94850.50;;;6.28;73.09
36386;BME280;24125;47.482;8.770;2022-12-10T01:05:34;94852.84;;;6.29;73.12
36386;BME280;24125;47.482;8.770;2022-12-10T01:08:10;94845.31;;;6.31;73.05
36386;BME280;24125;47.482;8.770;2022-12-10T01:10:45;94852.50;;;6.31;72.93
36386;BME280;24125;47.482;8.770;2022-12-10T01:13:25;94864.22;;;6.30;73.00
36386;BME280;24125;47.482;8.770;2022-12-10T01:16:01;94872.59;;;6.32;73.70
36386;BME280;24125;47.482;8.770;2022-12-10T01:18:35;94865.75;;;6.31;73.76
36386;BME280;24125;47.482;8.770;2022-12-10T01:21:11;94861.66;;;6.33;73.56
36386;BME280;24125;47.482;8.770;2022-12-10T01:23:48;94856.03;;;6.35;73.42
36386;BME280;24125;47.482;8.770;2022-12-10T01:26:24;94861.66;;;6.33;73.27
36386;BME280;24125;47.482;8.770;2022-12-10T01:28:58;94866.97;;;6.33;73.09
36386;BME280;24125;47.482;8.770;2022-12-10T01:31:33;94873.50;;;6.36;72.78
36386;BME280;24125;47.482;8.770;2022-12-10T01:34:10;94877.56;;;6.33;73.15
36386;BME280;24125;47.482;8.770;2022-12-10T01:36:48;94871.94;;;6.35;73.00
36386;BME280;24125;47.482;8.770;2022-12-10T01:39:23;94880.22;;;6.33;72.90
36386;BME280;24125;47.482;8.770;2022-12-10T01:41:58;94880.22;;;6.33;72.57
36386;BME280;24125;47.482;8.770;2022-12-10T01:44:59;94883.19;;;6.32;72.65
36386;BME280;24125;47.482;8.770;2022-12-10T01:47:34;94881.22;;;6.29;72.77
36386;BME280;24125;47.482;8.770;2022-12-10T01:50:07;94888.84;;;6.30;72.64
36386;BME280;24125;47.482;8.770;2022-12-10T01:52:41;94879.22;;;6.26;73.02
36386;BME280;24125;47.482;8.770;2022-12-10T01:55:43;94883.09;;;6.28;72.38
36386;BME280;24125;47.482;8.770;2022-12-10T01:58:18;94876.88;;;6.24;73.28
36386;BME280;24125;47.482;8.770;2022-12-10T02:01:01;94870.47;;;6.25;73.12
36386;BME280;24125;47.482;8.770;2022-12-10T02:03:54;94875.13;;;6.28;73.68
36386;BME280;24125;47.482;8.770;2022-12-10T02:06:36;94875.13;;;6.28;73.50
36386;BME280;24125;47.482;8.770;2022-12-10T02:09:19;94885.84;;;6.32;73.84
36386;BME280;24125;47.482;8.770;2022-12-10T02:12:01;94891.13;;;6.32;73.75
36386;BME280;24125;47.482;8.770;2022-12-10T02:14:43;94886.28;;;6.34;73.95
36386;BME280;24125;47.482;8.770;2022-12-10T02:17:23;94889.06;;;6.37;74.01
36386;BME280;24125;47.482;8.770;2022-12-10T02:20:02;94883.88;;;6.41;74.27
36386;BME280;24125;47.482;8.770;2022-12-10T02:22:41;94888.84;;;6.42;74.06
36386;BME280;24125;47.482;8.770;2022-12-10T02:25:18;94885.09;;;6.43;73.86
36386;BME280;24125;47.482;8.770;2022-12-10T02:28:01;94888.66;;;6.48;74.25
36386;BME280;24125;47.482;8.770;2022-12-10T02:30:38;94888.75;;;6.51;73.82
36386;BME280;24125;47.482;8.770;2022-12-10T02:33:12;94886.09;;;6.51;73.43
36386;BME280;24125;47.482;8.770;2022-12-10T02:35:51;94891.06;;;6.53;73.16
36386;BME280;24125;47.482;8.770;2022-12-10T02:38:28;94886.88;;;6.52;72.31
36386;BME280;24125;47.482;8.770;2022-12-10T02:41:04;94883.44;;;6.51;72.58
36386;BME280;24125;47.482;8.770;2022-12-10T02:43:39;94884.91;;;6.49;72.71
36386;BME280;24125;47.482;8.770;2022-12-10T02:46:14;94884.91;;;6.49;73.20
36386;BME280;24125;47.482;8.770;2022-12-10T02:48:49;94876.16;;;6.48;73.69
36386;BME280;24125;47.482;8.770;2022-12-10T02:51:25;94877.59;;;6.46;73.19
36386;BME280;24125;47.482;8.770;2022-12-10T02:53:59;94869.31;;;6.47;73.14
36386;BME280;24125;47.482;8.770;2022-12-10T02:56:34;94870.19;;;6.51;73.19
36386;BME280;24125;47.482;8.770;2022-12-10T02:59:16;94869.41;;;6.51;73.01
36386;BME280;24125;47.482;8.770;2022-12-10T03:01:57;94868.75;;;6.54;73.43
36386;BME280;24125;47.482;8.770;2022-12-10T03:04:38;94867.66;;;6.55;73.50
36386;BME280;24125;47.482;8.770;2022-12-10T03:07:17;94869.22;;;6.56;73.51
36386;BME280;24125;47.482;8.770;2022-12-10T03:09:58;94871.97;;;6.59;73.00
36386;BME280;24125;47.482;8.770;2022-12-10T03:12:37;94871.19;;;6.59;72.80
36386;BME280;24125;47.482;8.770;2022-12-10T03:15:12;94868.88;;;6.57;72.58
36386;BME280;24125;47.482;8.770;2022-12-10T03:17:49;94876.47;;;6.59;72.72
36386;BME280;24125;47.482;8.770;2022-12-10T03:20:24;94864.69;;;6.56;72.45
36386;BME280;24125;47.482;8.770;2022-12-10T03:22:58;94867.66;;;6.55;72.61
36386;BME280;24125;47.482;8.770;2022-12-10T03:25:32;94867.97;;;6.53;72.67
36386;BME280;24125;47.482;8.770;2022-12-10T03:28:06;94869.09;;;6.52;72.76
36386;BME280;24125;47.482;8.770;2022-12-10T03:30:41;94858.81;;;6.51;72.36
36386;BME280;24125;47.482;8.770;2022-12-10T03:33:17;94848.19;;;6.51;72.65
36386;BME280;24125;47.482;8.770;2022-12-10T03:35:51;94850.44;;;6.49;72.56
36386;BME280;24125;47.482;8.770;2022-12-10T03:38:24;94845.31;;;6.43;72.70
36386;BME280;24125;47.482;8.770;2022-12-10T03:40:58;94834.59;;;6.40;72.36
36386;BME280;24125;47.482;8.770;2022-12-10T03:43:31;94848.53;;;6.37;71.81
36386;BME280;24125;47.482;8.770;2022-12-10T03:46:04;94854.03;;;6.32;72.74
36386;BME280;24125;47.482;8.770;2022-12-10T03:48:39;94855.03;;;6.27;72.37
36386;BME280;24125;47.482;8.770;2022-12-10T03:51:12;94851.47;;;6.23;73.02
36386;BME280;24125;47.482;8.770;2022-12-10T03:53:46;94855.59;;;6.21;73.08
36386;BME280;24125;47.482;8.770;2022-12-10T03:56:21;94862.31;;;6.18;72.96
36386;BME280;24125;47.482;8.770;2022-12-10T03:58:54;94866.81;;;6.18;73.08
36386;BME280;24125;47.482;8.770;2022-12-10T04:01:27;94859.09;;;6.13;73.14
36386;BME280;24125;47.482;8.770;2022-12-10T04:04:02;94867.06;;;6.13;72.80
36386;BME280;24125;47.482;8.770;2022-12-10T04:06:38;94863.16;;;6.10;72.95
36386;BME280;24125;47.482;8.770;2022-12-10T04:09:15;94862.06;;;6.11;73.43
36386;BME280;24125;47.482;8.770;2022-12-10T04:11:55;94861.63;;;6.09;73.19
36386;BME280;24125;47.482;8.770;2022-12-10T04:14:29;94871.78;;;6.07;73.04
36386;BME280;24125;47.482;8.770;2022-12-10T04:17:19;94873.63;;;6.06;73.16
36386;BME280;24125;47.482;8.770;2022-12-10T04:19:53;94870.22;;;6.06;73.52
36386;BME280;24125;47.482;8.770;2022-12-10T04:22:26;94872.09;;;6.05;73.49
36386;BME280;24125;47.482;8.770;2022-12-10T04:25:18;94884.59;;;6.05;72.82
36386;BME280;24125;47.482;8.770;2022-12-10T04:28:09;94886.47;;;6.04;72.81
36386;BME280;24125;47.482;8.770;2022-12-10T04:30:42;94882.59;;;6.02;72.94
36386;BME280;24125;47.482;8.770;2022-12-10T04:33:15;94881.03;;;6.01;72.87
36386;BME280;24125;47.482;8.770;2022-12-10T04:35:49;94870.66;;;5.96;72.52
36386;BME280;24125;47.482;8.770;2022-12-10T04:38:23;94872.84;;;5.94;72.71
36386;BME280;24125;47.482;8.770;2022-12-10T04:40:56;94863.22;;;5.89;72.44
36386;BME280;24125;47.482;8.770;2022-12-10T04:43:29;94854.03;;;5.87;72.54
36386;BME280;24125;47.482;8.770;2022-12-10T04:46:02;94861.53;;;5.85;72.54
36386;BME280;24125;47.482;8.770;2022-12-10T04:48:35;94868.56;;;5.81;72.37
36386;BME280;24125;47.482;8.770;2022-12-10T04:51:10;94885.22;;;5.81;72.45
36386;BME280;24125;47.482;8.770;2022-12-10T04:53:43;94866.59;;;5.78;72.24
36386;BME280;24125;47.482;8.770;2022-12-10T04:56:16;94866.78;;;5.73;72.82
36386;BME280;24125;47.482;8.770;2022-12-10T04:58:49;94876.28;;;5.74;72.99
36386;BME280;24125;47.482;8.770;2022-12-10T05:01:23;94875.81;;;5.72;73.01
36386;BME280;24125;47.482;8.770;2022-12-10T05:03:58;94868.22;;;5.70;72.81
36386;BME280;24125;47.482;8.770;2022-12-10T05:06:34;94862.91;;;5.70;72.56
36386;BME280;24125;47.482;8.770;2022-12-10T05:09:07;94866.22;;;5.67;72.77
36386;BME280;24125;47.482;8.770;2022-12-10T05:11:40;94874.38;;;5.62;72.31
36386;BME280;24125;47.482;8.770;2022-12-10T05:14:15;94867.84;;;5.59;72.46
36386;BME280;24125;47.482;8.770;2022-12-10T05:16:49;94872.69;;;5.57;72.84
36386;BME280;24125;47.482;8.770;2022-12-10T05:19:23;94875.19;;;5.54;73.27
36386;BME280;24125;47.482;8.770;2022-12-10T05:22:02;94875.53;;;5.52;73.26
36386;BME280;24125;47.482;8.770;2022-12-10T05:24:53;94886.91;;;5.53;73.47
36386;BME280;24125;47.482;8.770;2022-12-10T05:27:31;94884.25;;;5.53;73.88
36386;BME280;24125;47.482;8.770;2022-12-10T05:30:05;94879.28;;;5.51;73.94
36386;BME280;24125;47.482;8.770;2022-12-10T05:32:39;94883.47;;;5.52;73.82
36386;BME280;24125;47.482;8.770;2022-12-10T05:35:12;94893.28;;;5.52;73.68
36386;BME280;24125;47.482;8.770;2022-12-10T05:37:47;94889.97;;;5.55;73.69
36386;BME280;24125;47.482;8.770;2022-12-10T05:40:20;94888.09;;;5.55;73.68
36386;BME280;24125;47.482;8.770;2022-12-10T05:42:53;94884.69;;;5.55;73.71
36386;BME280;24125;47.482;8.770;2022-12-10T05:45:26;94887.31;;;5.55;73.85
36386;BME280;24125;47.482;8.770;2022-12-10T05:47:59;94884.69;;;5.55;73.74
36386;BME280;24125;47.482;8.770;2022-12-10T05:50:33;94889.97;;;5.55;73.50
36386;BME280;24125;47.482;8.770;2022-12-10T05:53:08;94895.28;;;5.55;73.78
36386;BME280;24125;47.482;8.770;2022-12-10T05:55:41;94898.69;;;5.55;74.05
36386;BME280;24125;47.482;8.770;2022-12-10T05:58:14;94900.25;;;5.56;74.26
36386;BME280;24125;47.482;8.770;2022-12-10T06:00:47;94906.31;;;5.57;74.26
36386;BME280;24125;47.482;8.770;2022-12-10T06:03:22;94904.91;;;5.59;74.23
36386;BME280;24125;47.482;8.770;2022-12-10T06:05:56;94903.81;;;5.60;73.85
36386;BME280;24125;47.482;8.770;2022-12-10T06:08:31;94912.19;;;5.62;74.19
36386;BME280;24125;47.482;8.770;2022-12-10T06:11:06;94912.97;;;5.63;74.38
36386;BME280;24125;47.482;8.770;2022-12-10T06:13:39;94910.31;;;5.63;74.79
36386;BME280;24125;47.482;8.770;2022-12-10T06:16:13;94911.22;;;5.67;74.61
36386;BME280;24125;47.482;8.770;2022-12-10T06:18:47;94909.81;;;5.69;74.42
36386;BME280;24125;47.482;8.770;2022-12-10T06:21:20;94911.00;;;5.72;74.51
36386;BME280;24125;47.482;8.770;2022-12-10T06:23:55;94905.41;;;5.74;74.26
36386;BME280;24125;47.482;8.770;2022-12-10T06:26:28;94903.84;;;5.73;74.02
36386;BME280;24125;47.482;8.770;2022-12-10T06:29:01;94917.09;;;5.73;74.33
36386;BME280;24125;47.482;8.770;2022-12-10T06:31:36;94901.53;;;5.71;73.57
36386;BME280;24125;47.482;8.770;2022-12-10T06:34:09;94911.78;;;5.73;73.43
36386;BME280;24125;47.482;8.770;2022-12-10T06:36:42;94917.75;;;5.69;73.33
36386;BME280;24125;47.482;8.770;2022-12-10T06:39:16;94924.47;;;5.67;72.53
36386;BME280;24125;47.482;8.770;2022-12-10T06:41:49;94925.41;;;5.62;72.74
36386;BME280;24125;47.482;8.770;2022-12-10T06:44:29;94916.91;;;5.57;72.42
36386;BME280;24125;47.482;8.770;2022-12-10T06:47:02;94915.56;;;5.51;73.10
36386;BME280;24125;47.482;8.770;2022-12-10T06:49:35;94916.19;;;5.48;73.01
36386;BME280;24125;47.482;8.770;2022-12-10T06:52:09;94917.50;;;5.42;72.89
36386;BME280;24125;47.482;8.770;2022-12-10T06:54:44;94919.69;;;5.40;73.16
36386;BME280;24125;47.482;8.770;2022-12-10T06:57:17;94927.50;;;5.36;73.43
36386;BME280;24125;47.482;8.770;2022-12-10T06:59:50;94939.97;;;5.36;73.29
36386;BME280;24125;47.482;8.770;2022-12-10T07:02:23;94934.22;;;5.34;73.82
36386;BME280;24125;47.482;8.770;2022-12-10T07:04:56;94941.69;;;5.31;73.67
36386;BME280;24125;47.482;8.770;2022-12-10T07:07:29;94934.53;;;5.32;73.87
36386;BME280;24125;47.482;8.770;2022-12-10T07:10:04;94946.66;;;5.33;73.74
36386;BME280;24125;47.482;8.770;2022-12-10T07:12:38;94934.06;;;5.30;73.14
36386;BME280;24125;47.482;8.770;2022-12-10T07:15:11;94938.47;;;5.26;73.22
36386;BME280;24125;47.482;8.770;2022-12-10T07:17:44;94946.41;;;5.26;73.31
36386;BME280;24125;47.482;8.770;2022-12-10T07:20:17;94952.31;;;5.23;74.06
36386;BME280;24125;47.482;8.770;2022-12-10T07:22:50;94959.47;;;5.22;73.66
36386;BME280;24125;47.482;8.770;2022-12-10T07:25:25;94961.81;;;5.24;73.62
36386;BME280;24125;47.482;8.770;2022-12-10T07:27:58;94947.34;;;5.21;73.78
36386;BME280;24125;47.482;8.770;2022-12-10T07:30:31;94943.59;;;5.22;73.91
36386;BME280;24125;47.482;8.770;2022-12-10T07:33:04;94943.91;;;5.21;73.90
36386;BME280;24125;47.482;8.770;2022-12-10T07:35:38;94953.28;;;5.18;74.08
36386;BME280;24125;47.482;8.770;2022-12-10T07:38:19;94957.47;;;5.19;74.07
36386;BME280;24125;47.482;8.770;2022-12-10T07:40:53;94941.94;;;5.18;74.13
36386;BME280;24125;47.482;8.770;2022-12-10T07:43:27;94944.25;;;5.19;74.86
36386;BME280;24125;47.482;8.770;2022-12-10T07:46:03;94959.03;;;5.20;74.55
36386;BME280;24125;47.482;8.770;2022-12-10T07:48:37;94955.59;;;5.20;74.72
36386;BME280;24125;47.482;8.770;2022-12-10T07:51:11;94952.94;;;5.20;75.06
36386;BME280;24125;47.482;8.770;2022-12-10T07:53:44;94953.41;;;5.22;75.27
36386;BME280;24125;47.482;8.770;2022-12-10T07:56:20;94958.84;;;5.25;74.98
36386;BME280;24125;47.482;8.770;2022-12-10T07:58:53;94972.53;;;5.27;75.43
36386;BME280;24125;47.482;8.770;2022-12-10T08:01:27;94961.97;;;5.27;75.51
36386;BME280;24125;47.482;8.770;2022-12-10T08:04:00;94973.44;;;5.31;75.71
36386;BME280;24125;47.482;8.770;2022-12-10T08:06:33;94969.84;;;5.36;75.30
36386;BME280;24125;47.482;8.770;2022-12-10T08:09:06;94966.84;;;5.38;75.47
36386;BME280;24125;47.482;8.770;2022-12-10T08:11:41;94974.63;;;5.43;75.74
36386;BME280;24125;47.482;8.770;2022-12-10T08:14:14;94980.69;;;5.43;75.72
36386;BME280;24125;47.482;8.770;2022-12-10T08:16:47;94996.38;;;5.48;75.57
36386;BME280;24125;47.482;8.770;2022-12-10T08:19:20;95000.28;;;5.51;74.98
36386;BME280;24125;47.482;8.770;2022-12-10T08:22:01;94994.66;;;5.52;74.83
36386;BME280;24125;47.482;8.770;2022-12-10T08:24:34;95013.97;;;5.53;74.57
36386;BME280;24125;47.482;8.770;2022-12-10T08:27:09;95012.09;;;5.53;74.85
36386;BME280;24125;47.482;8.770;2022-12-10T08:29:41;95015.38;;;5.50;74.73
36386;BME280;24125;47.482;8.770;2022-12-10T08:32:15;95023.31;;;5.50;74.51
36386;BME280;24125;47.482;8.770;2022-12-10T08:34:48;95025.97;;;5.50;74.34
36386;BME280;24125;47.482;8.770;2022-12-10T08:37:21;95018.03;;;5.50;74.12
36386;BME280;24125;47.482;8.770;2022-12-10T08:39:55;95023.31;;;5.50;74.02
36386;BME280;24125;47.482;8.770;2022-12-10T08:42:29;95018.03;;;5.50;73.80
36386;BME280;24125;47.482;8.770;2022-12-10T08:45:03;95023.94;;;5.47;73.43
36386;BME280;24125;47.482;8.770;2022-12-10T08:47:36;95025.69;;;5.43;73.36
36386;BME280;24125;47.482;8.770;2022-12-10T08:50:10;95024.00;;;5.39;73.24
36386;BME280;24125;47.482;8.770;2022-12-10T08:52:43;95026.38;;;5.31;73.09
36386;BME280;24125;47.482;8.770;2022-12-10T08:55:18;95033.72;;;5.26;73.34
36386;BME280;24125;47.482;8.770;2022-12-10T08:57:53;95043.38;;;5.22;73.61
36386;BME280;24125;47.482;8.770;2022-12-10T09:00:26;95047.78;;;5.18;73.87
36386;BME280;24125;47.482;8.770;2022-12-10T09:03:00;95040.00;;;5.13;73.93
36386;BME280;24125;47.482;8.770;2022-12-10T09:05:34;95048.25;;;5.11;73.91
36386;BME280;24125;47.482;8.770;2022-12-10T09:08:07;95054.97;;;5.09;73.80
36386;BME280;24125;47.482;8.770;2022-12-10T09:10:41;95049.97;;;5.07;74.03
36386;BME280;24125;47.482;8.770;2022-12-10T09:13:16;95059.00;;;5.06;73.89
36386;BME280;24125;47.482;8.770;2022-12-10T09:15:50;95051.38;;;5.05;74.22
36386;BME280;24125;47.482;8.770;2022-12-10T09:18:23;95051.25;;;5.01;74.29
36386;BME280;24125;47.482;8.770;2022-12-10T09:20:56;95059.50;;;5.00;74.71
36386;BME280;24125;47.482;8.770;2022-12-10T09:23:29;95067.44;;;5.00;74.49
36386;BME280;24125;47.482;8.770;2022-12-10T09:26:05;95073.94;;;5.02;74.49
36386;BME280;24125;47.482;8.770;2022-12-10T09:28:40;95077.38;;;5.03;74.69
36386;BME280;24125;47.482;8.770;2022-12-10T09:31:15;95065.22;;;5.02;74.99
36386;BME280;24125;47.482;8.770;2022-12-10T09:33:54;95073.63;;;5.04;74.81
36386;BME280;24125;47.482;8.770;2022-12-10T09:36:27;95090.28;;;5.04;74.77
36386;BME280;24125;47.482;8.770;2022-12-10T09:39:04;95090.28;;;5.04;74.50
36386;BME280;24125;47.482;8.770;2022-12-10T09:41:59;95096.03;;;5.06;74.50
36386;BME280;24125;47.482;8.770;2022-12-10T09:44:48;95094.66;;;5.09;74.51
36386;BME280;24125;47.482;8.770;2022-12-10T09:47:31;95090.44;;;5.08;74.56
36386;BME280;24125;47.482;8.770;2022-12-10T09:50:13;95093.88;;;5.08;74.06
36386;BME280;24125;47.482;8.770;2022-12-10T09:52:49;95093.41;;;5.06;74.64
36386;BME280;24125;47.482;8.770;2022-12-10T09:55:29;95096.19;;;5.10;74.21
36386;BME280;24125;47.482;8.770;2022-12-10T09:58:06;95087.31;;;5.06;73.82
36386;BME280;24125;47.482;8.770;2022-12-10T10:00:46;95091.06;;;5.05;74.29
36386;BME280;24125;47.482;8.770;2022-12-10T10:03:20;95092.03;;;5.00;74.51
36386;BME280;24125;47.482;8.770;2022-12-10T10:05:53;95087.03;;;4.99;74.29
36386;BME280;24125;47.482;8.770;2022-12-10T10:08:32;95089.69;;;4.99;74.78
36386;BME280;24125;47.482;8.770;2022-12-10T10:11:10;95086.56;;;4.97;74.38
36386;BME280;24125;47.482;8.770;2022-12-10T10:13:45;95083.16;;;4.96;74.53
36386;BME280;24125;47.482;8.770;2022-12-10T10:16:25;95093.41;;;4.98;74.84
36386;BME280;24125;47.482;8.770;2022-12-10T10:19:02;95087.03;;;4.99;75.34
36386;BME280;24125;47.482;8.770;2022-12-10T10:21:39;95086.72;;;5.00;75.21
36386;BME280;24125;47.482;8.770;2022-12-10T10:24:15;95082.34;;;5.04;75.38
36386;BME280;24125;47.482;8.770;2022-12-10T10:26:51;95089.66;;;5.07;75.80
36386;BME280;24125;47.482;8.770;2022-12-10T10:29:25;95104.13;;;5.10;75.58
36386;BME280;24125;47.482;8.770;2022-12-10T10:32:15;95105.81;;;5.14;75.13
36386;BME280;24125;47.482;8.770;2022-12-10T10:34:53;95107.53;;;5.19;74.83
36386;BME280;24125;47.482;8.770;2022-12-10T10:37:30;95103.00;;;5.19;75.05
36386;BME280;24125;47.482;8.770;2022-12-10T10:40:05;95102.38;;;5.22;74.37
36386;BME280;24125;47.482;8.770;2022-12-10T10:42:40;95102.06;;;5.24;74.65
36386;BME280;24125;47.482;8.770;2022-12-10T10:45:35;95105.47;;;5.24;74.43
36386;BME280;24125;47.482;8.770;2022-12-10T10:48:15;95111.56;;;5.25;74.31
36386;BME280;24125;47.482;8.770;2022-12-10T10:50:50;95107.81;;;5.26;74.08
36386;BME280;24125;47.482;8.770;2022-12-10T10:53:27;95113.41;;;5.24;73.95
36386;BME280;24125;47.482;8.770;2022-12-10T10:56:06;95114.50;;;5.23;74.20
36386;BME280;24125;47.482;8.770;2022-12-10T10:58:52;95119.66;;;5.20;73.85
36386;BME280;24125;47.482;8.770;2022-12-10T11:01:42;95116.09;;;5.16;73.58
36386;BME280;24125;47.482;8.770;2022-12-10T11:04:22;95116.72;;;5.13;74.21
36386;BME280;24125;47.482;8.770;2022-12-10T11:07:00;95122.00;;;5.13;74.09
36386;BME280;24125;47.482;8.770;2022-12-10T11:09:36;95117.69;;;5.08;74.36
36386;BME280;24125;47.482;8.770;2022-12-10T11:12:26;95116.91;;;5.08;74.11
36386;BME280;24125;47.482;8.770;2022-12-10T11:15:01;95118.59;;;5.04;73.73
36386;BME280;24125;47.482;8.770;2022-12-10T11:17:34;95119.56;;;4.99;74.07
36386;BME280;24125;47.482;8.770;2022-12-10T11:20:17;95114.59;;;4.98;73.98
36386;BME280;24125;47.482;8.770;2022-12-10T11:22:56;95120.50;;;4.94;74.62
36386;BME280;24125;47.482;8.770;2022-12-10T11:25:43;95123.44;;;4.93;74.56
36386;BME280;24125;47.482;8.770;2022-12-10T11:28:32;95126.09;;;4.93;74.65
36386;BME280;24125;47.482;8.770;2022-12-10T11:31:24;95115.69;;;4.88;74.64
36386;BME280;24125;47.482;8.770;2022-12-10T11:34:08;95129.38;;;4.90;74.91
36386;BME280;24125;47.482;8.770;2022-12-10T11:36:54;95127.22;;;4.92;75.35
36386;BME280;24125;47.482;8.770;2022-12-10T11:39:51;95136.34;;;4.94;74.99
36386;BME280;24125;47.482;8.770;2022-12-10T11:42:40;95134.19;;;4.97;74.91
36386;BME280;24125;47.482;8.770;2022-12-10T11:45:19;95141.50;;;5.00;75.25
36386;BME280;24125;47.482;8.770;2022-12-10T11:48:03;95139.28;;;5.02;75.06
36386;BME280;24125;47.482;8.770;2022-12-10T11:50:43;95139.28;;;5.02;74.64
36386;BME280;24125;47.482;8.770;2022-12-10T11:53:34;95139.75;;;5.04;74.34
36386;BME280;24125;47.482;8.770;2022-12-10T11:56:22;95147.09;;;5.07;74.75
36386;BME280;24125;47.482;8.770;2022-12-10T11:59:06;95146.63;;;5.05;74.48
36386;BME280;24125;47.482;8.770;2022-12-10T12:01:55;95152.69;;;5.05;74.39
36386;BME280;24125;47.482;8.770;2022-12-10T12:04:44;95156.72;;;5.03;73.88
36386;BME280;24125;47.482;8.770;2022-12-10T12:07:36;95153.16;;;4.99;73.74
36386;BME280;24125;47.482;8.770;2022-12-10T12:10:46;95157.81;;;4.93;74.16
36386;BME280;24125;47.482;8.770;2022-12-10T12:13:27;95157.22;;;4.87;74.23
36386;BME280;24125;47.482;8.770;2022-12-10T12:16:05;95160.03;;;4.82;74.00
36386;BME280;24125;47.482;8.770;2022-12-10T12:18:45;95169.66;;;4.78;74.26
36386;BME280;24125;47.482;8.770;2022-12-10T12:21:20;95169.06;;;4.73;74.65
36386;BME280;24125;47.482;8.770;2022-12-10T12:23:58;95176.53;;;4.71;74.82
36386;BME280;24125;47.482;8.770;2022-12-10T12:26:39;95186.00;;;4.72;74.64
36386;BME280;24125;47.482;8.770;2022-12-10T12:29:18;95189.28;;;4.69;74.45
36386;BME280;24125;47.482;8.770;2022-12-10T12:32:12;95190.69;;;4.66;74.75
36386;BME280;24125;47.482;8.770;2022-12-10T12:34:51;95193.34;;;4.66;74.85
36386;BME280;24125;47.482;8.770;2022-12-10T12:37:38;95193.63;;;4.65;75.01
36386;BME280;24125;47.482;8.770;2022-12-10T12:40:16;95195.66;;;4.68;74.80
36386;BME280;24125;47.482;8.770;2022-12-10T12:42:59;95202.50;;;4.69;74.80
36386;BME280;24125;47.482;8.770;2022-12-10T12:45:39;95197.19;;;4.69;74.89
36386;BME280;24125;47.482;8.770;2022-12-10T12:48:21;95205.91;;;4.69;74.70
36386;BME280;24125;47.482;8.770;2022-12-10T12:51:00;95197.84;;;4.66;74.51
36386;BME280;24125;47.482;8.770;2022-12-10T12:53:35;95199.22;;;4.63;74.71
36386;BME280;24125;47.482;8.770;2022-12-10T12:56:21;95203.13;;;4.66;74.65
36386;BME280;24125;47.482;8.770;2022-12-10T12:59:11;95212.91;;;4.65;74.75
36386;BME280;24125;47.482;8.770;2022-12-10T13:01:57;95213.72;;;4.66;75.09
36386;BME280;24125;47.482;8.770;2022-12-10T13:04:33;95222.41;;;4.66;75.17
36386;BME280;24125;47.482;8.770;2022-12-10T13:07:28;95226.28;;;4.69;75.11
36386;BME280;24125;47.482;8.770;2022-12-10T13:10:18;95217.13;;;4.66;74.89
36386;BME280;24125;47.482;8.770;2022-12-10T13:13:22;95232.34;;;4.69;74.48
36386;BME280;24125;47.482;8.770;2022-12-10T13:16:44;95240.59;;;4.68;74.35
36386;BME280;24125;47.482;8.770;2022-12-10T13:19:30;95240.59;;;4.68;74.43
36386;BME280;24125;47.482;8.770;2022-12-10T13:22:06;95245.72;;;4.64;74.79
36386;BME280;24125;47.482;8.770;2022-12-10T13:24:59;95256.31;;;4.64;74.94
36386;BME280;24125;47.482;8.770;2022-12-10T13:27:38;95253.50;;;4.61;75.38
36386;BME280;24125;47.482;8.770;2022-12-10T13:30:33;95261.28;;;4.66;75.02
36386;BME280;24125;47.482;8.770;2022-12-10T13:33:18;95253.81;;;4.68;74.91
36386;BME280;24125;47.482;8.770;2022-12-10T13:35:58;95261.75;;;4.68;74.89
36386;BME280;24125;47.482;8.770;2022-12-10T13:38:41;95259.88;;;4.68;74.86
36386;BME280;24125;47.482;8.770;2022-12-10T13:41:30;95263.31;;;4.69;74.76
36386;BME280;24125;47.482;8.770;2022-12-10T13:44:36;95265.63;;;4.70;74.70
36386;BME280;24125;47.482;8.770;2022-12-10T13:47:25;95272.78;;;4.70;74.82
36386;BME280;24125;47.482;8.770;2022-12-10T13:50:03;95275.44;;;4.70;74.89
36386;BME280;24125;47.482;8.770;2022-12-10T13:52:46;95284.94;;;4.71;74.99
36386;BME280;24125;47.482;8.770;2022-12-10T13:55:29;95289.91;;;4.72;75.06
36386;BME280;24125;47.482;8.770;2022-12-10T13:58:19;95288.34;;;4.71;74.67
36386;BME280;24125;47.482;8.770;2022-12-10T14:00:58;95295.50;;;4.71;74.68
36386;BME280;24125;47.482;8.770;2022-12-10T14:03:59;95286.00;;;4.70;74.65
36386;BME280;24125;47.482;8.770;2022-12-10T14:06:37;95303.13;;;4.72;74.53